createdAt,value
2023-02-06T00:00:51.828Z,6.35
2023-02-06T00:03:53.345Z,6.03
2023-02-06T00:06:54.773Z,5.32
2023-02-06T00:09:56.213Z,6.38
2023-02-06T00:12:57.618Z,6.28
2023-02-06T00:15:59.281Z,5.68
2023-02-06T00:19:01.333Z,5.45
2023-02-06T00:22:02.803Z,5.25
2023-02-06T00:25:04.996Z,5.35
2023-02-06T00:28:06.542Z,4.60
2023-02-06T00:31:08.603Z,4.85
2023-02-06T00:34:10.208Z,5.60
2023-02-06T00:37:11.838Z,5.70
2023-02-06T00:40:13.362Z,5.82
2023-02-06T00:43:14.930Z,6.28
2023-02-06T00:46:16.565Z,5.53
2023-02-06T00:49:18.504Z,5.78
2023-02-06T00:52:19.945Z,4.93
2023-02-06T00:55:21.511Z,4.80
2023-02-06T00:58:23.572Z,4.30
2023-02-06T01:01:26.322Z,4.32
2023-02-06T01:04:27.873Z,4.50
2023-02-06T01:07:29.626Z,4.00
2023-02-06T01:10:32.753Z,5.00
2023-02-06T01:13:34.698Z,5.30
2023-02-06T01:16:36.280Z,4.93
2023-02-06T01:19:38.281Z,4.53
2023-02-06T01:22:40.578Z,4.95
2023-02-06T01:25:42.118Z,4.90
2023-02-06T01:28:46.153Z,5.25
2023-02-06T01:31:48.196Z,5.53
2023-02-06T01:34:49.675Z,5.80
2023-02-06T01:37:51.148Z,4.82
2023-02-06T01:40:57.638Z,4.85
2023-02-06T01:44:22.417Z,5.68
2023-02-06T01:47:23.947Z,6.63
2023-02-06T01:50:25.598Z,6.68
2023-02-06T01:53:28.397Z,7.80
2023-02-06T01:56:33.519Z,7.47
2023-02-06T01:59:37.630Z,7.68
2023-02-06T02:02:43.536Z,7.70
2023-02-06T02:05:46.118Z,7.18
2023-02-06T02:08:50.355Z,7.70
2023-02-06T02:14:54.513Z,5.75
2023-02-06T02:18:37.376Z,5.70
2023-02-06T02:22:10.089Z,5.53
2023-02-06T02:25:14.446Z,5.70
2023-02-06T02:28:21.851Z,5.22
2023-02-06T02:31:42.160Z,4.82
2023-02-06T02:35:05.707Z,5.50
2023-02-06T02:38:18.526Z,5.32
2023-02-06T02:41:48.823Z,5.70
2023-02-06T02:44:55.398Z,4.57
2023-02-06T02:48:21.867Z,5.00
2023-02-06T02:51:24.619Z,4.95
2023-02-06T02:54:26.391Z,4.97
2023-02-06T02:57:31.647Z,4.93
2023-02-06T03:00:39.809Z,4.60
2023-02-06T03:03:44.529Z,4.75
2023-02-06T03:06:55.217Z,4.50
2023-02-06T03:10:05.612Z,4.57
2023-02-06T03:13:26.633Z,4.68
2023-02-06T03:16:38.785Z,4.50
2023-02-06T03:19:45.926Z,4.78
2023-02-06T03:22:50.834Z,4.30
2023-02-06T03:25:56.215Z,4.80
2023-02-06T03:29:02.399Z,5.68
2023-02-06T03:32:10.960Z,4.97
2023-02-06T03:35:20.366Z,5.47
2023-02-06T03:38:24.656Z,5.18
2023-02-06T03:41:31.850Z,4.95
2023-02-06T03:44:39.685Z,4.88
2023-02-06T03:47:42.480Z,4.63
2023-02-06T03:50:47.117Z,5.05
2023-02-06T03:53:51.980Z,4.55
2023-02-06T03:56:57.828Z,4.90
2023-02-06T03:59:59.520Z,4.78
2023-02-06T04:03:01.329Z,5.78
2023-02-06T04:06:02.946Z,6.35
2023-02-06T04:09:04.501Z,5.30
2023-02-06T04:12:06.444Z,5.15
2023-02-06T04:15:08.299Z,4.90
2023-02-06T04:18:09.736Z,5.05
2023-02-06T04:21:11.247Z,5.20
2023-02-06T04:24:12.731Z,4.90
2023-02-06T04:27:14.820Z,4.88
2023-02-06T04:30:17.893Z,5.10
2023-02-06T04:33:19.443Z,5.18
2023-02-06T04:36:21.060Z,5.97
2023-02-06T04:39:22.560Z,5.85
2023-02-06T04:42:24.121Z,5.28
2023-02-06T04:45:25.574Z,5.32
2023-02-06T04:48:27.117Z,5.03
2023-02-06T04:51:28.588Z,5.25
2023-02-06T04:54:32.574Z,5.57
2023-02-06T05:00:37.331Z,5.05
2023-02-06T05:03:40.001Z,5.70
2023-02-06T05:06:41.571Z,6.05
2023-02-06T05:09:43.048Z,5.85
2023-02-06T05:12:44.587Z,5.13
2023-02-06T05:15:46.756Z,6.03
2023-02-06T05:18:52.637Z,5.63
2023-02-06T05:21:54.214Z,5.07
2023-02-06T05:24:55.673Z,5.90
2023-02-06T05:28:00.161Z,5.82
2023-02-06T05:31:02.513Z,6.20
2023-02-06T05:34:04.068Z,6.13
2023-02-06T05:37:05.646Z,6.05
2023-02-06T05:40:08.111Z,5.93
2023-02-06T05:43:09.662Z,5.80
2023-02-06T05:46:12.838Z,6.63
2023-02-06T05:49:14.989Z,6.30
2023-02-06T05:52:16.498Z,6.18
2023-02-06T05:55:18.370Z,6.20
2023-02-06T05:58:19.890Z,7.43
2023-02-06T06:01:21.370Z,7.40
2023-02-06T06:04:22.946Z,8.65
2023-02-06T06:07:24.541Z,8.30
2023-02-06T06:10:26.148Z,7.28
2023-02-06T06:13:27.647Z,7.28
2023-02-06T06:16:29.144Z,8.10
2023-02-06T06:19:30.592Z,7.65
2023-02-06T06:22:32.040Z,7.95
2023-02-06T06:25:35.462Z,8.07
2023-02-06T06:28:38.804Z,7.95
2023-02-06T06:31:40.312Z,7.73
2023-02-06T06:34:41.833Z,7.22
2023-02-06T06:37:43.274Z,8.10
2023-02-06T06:40:44.794Z,8.52
2023-02-06T06:43:46.275Z,7.60
2023-02-06T06:46:47.782Z,8.68
2023-02-06T06:49:49.248Z,7.85
2023-02-06T06:52:50.757Z,7.85
2023-02-06T06:55:52.272Z,10.55
2023-02-06T06:58:53.765Z,8.30
2023-02-06T07:01:55.215Z,7.53
2023-02-06T07:04:56.807Z,7.88
2023-02-06T07:07:58.330Z,8.32
2023-02-06T07:10:59.832Z,7.50
2023-02-06T07:14:01.316Z,7.10
2023-02-06T07:17:02.977Z,9.30
2023-02-06T07:20:04.990Z,8.35
2023-02-06T07:23:06.483Z,8.50
2023-02-06T07:26:08.048Z,10.48
2023-02-06T07:29:09.509Z,9.27
2023-02-06T07:32:11.372Z,10.23
2023-02-06T07:35:15.238Z,9.63
2023-02-06T07:38:16.700Z,10.05
2023-02-06T07:41:18.328Z,7.88
2023-02-06T07:44:19.898Z,9.57
2023-02-06T07:47:21.377Z,11.90
2023-02-06T07:50:22.876Z,13.35
2023-02-06T07:53:24.370Z,12.73
2023-02-06T07:56:25.901Z,14.60
2023-02-06T07:59:27.499Z,14.48
2023-02-06T08:02:29.249Z,10.80
2023-02-06T08:05:32.158Z,23.50
2023-02-06T08:08:33.649Z,10.38
2023-02-06T08:11:35.848Z,13.30
2023-02-06T08:14:37.284Z,22.92
2023-02-06T08:17:38.792Z,16.75
2023-02-06T08:20:40.342Z,14.73
2023-02-06T08:23:42.522Z,12.60
2023-02-06T08:26:44.148Z,14.63
2023-02-06T08:29:45.785Z,9.57
2023-02-06T08:32:47.260Z,10.10
2023-02-06T08:35:48.746Z,9.02
2023-02-06T08:38:51.347Z,8.95
2023-02-06T08:41:52.866Z,10.35
2023-02-06T08:44:54.389Z,14.82
2023-02-06T08:47:55.857Z,11.00
2023-02-06T08:51:08.393Z,10.10
2023-02-06T08:54:17.221Z,18.92
2023-02-06T08:57:18.727Z,11.32
2023-02-06T09:00:20.681Z,10.10
2023-02-06T09:03:23.050Z,11.10
2023-02-06T09:06:25.508Z,9.85
2023-02-06T09:09:27.131Z,11.60
2023-02-06T09:12:28.569Z,10.80
2023-02-06T09:15:30.158Z,9.43
2023-02-06T09:18:31.617Z,8.68
2023-02-06T09:21:34.700Z,8.73
2023-02-06T09:24:37.790Z,8.60
2023-02-06T09:27:39.498Z,9.18
2023-02-06T09:30:41.042Z,7.88
2023-02-06T09:33:42.586Z,8.10
2023-02-06T09:36:44.284Z,6.85
2023-02-06T09:39:45.800Z,6.25
2023-02-06T09:42:50.931Z,7.10
2023-02-06T09:45:59.545Z,8.02
2023-02-06T09:49:06.715Z,7.07
2023-02-06T09:52:45.286Z,7.50
2023-02-06T09:55:58.399Z,5.70
2023-02-06T09:59:02.524Z,5.55
2023-02-06T10:05:34.303Z,6.20
2023-02-06T10:08:57.456Z,6.53
2023-02-06T10:12:04.994Z,6.53
2023-02-06T10:15:25.565Z,4.85
2023-02-06T10:18:48.367Z,5.80
2023-02-06T10:22:01.964Z,6.32
2023-02-06T10:25:28.618Z,7.10
2023-02-06T10:28:31.913Z,7.50
2023-02-06T10:31:45.048Z,6.50
2023-02-06T10:34:55.556Z,6.05
2023-02-06T10:38:18.659Z,6.38
2023-02-06T10:41:57.032Z,6.60
2023-02-06T10:45:38.663Z,6.70
2023-02-06T10:48:46.539Z,5.60
2023-02-06T10:51:53.263Z,5.63
2023-02-06T10:55:03.281Z,5.88
2023-02-06T10:58:40.449Z,5.82
2023-02-06T11:01:44.022Z,5.72
2023-02-06T11:04:52.526Z,5.50
2023-02-06T11:08:08.066Z,5.95
2023-02-06T11:11:25.805Z,6.35
2023-02-06T11:14:39.138Z,6.47
2023-02-06T11:17:40.846Z,6.97
2023-02-06T11:20:44.337Z,7.00
2023-02-06T11:23:47.401Z,6.70
2023-02-06T11:26:56.571Z,7.32
2023-02-06T11:30:08.293Z,6.72
2023-02-06T11:33:22.730Z,6.68
2023-02-06T11:39:33.603Z,8.35
2023-02-06T11:42:36.336Z,7.90
2023-02-06T11:45:38.121Z,8.57
2023-02-06T11:48:56.450Z,8.30
2023-02-06T11:52:00.070Z,7.88
2023-02-06T11:55:02.726Z,8.27
2023-02-06T11:58:13.205Z,7.80
2023-02-06T12:01:20.513Z,8.27
2023-02-06T12:04:31.604Z,8.05
2023-02-06T12:07:53.474Z,8.55
2023-02-06T12:11:02.746Z,8.35
2023-02-06T12:14:15.424Z,9.93
2023-02-06T12:17:27.082Z,11.82
2023-02-06T12:20:32.301Z,10.43
2023-02-06T12:23:42.617Z,7.65
2023-02-06T12:26:47.590Z,7.72
2023-02-06T12:30:30.788Z,8.07
2023-02-06T12:33:42.223Z,9.25
2023-02-06T12:37:10.306Z,8.65
2023-02-06T12:40:20.539Z,8.23
2023-02-06T12:43:22.182Z,8.23
2023-02-06T12:46:26.357Z,8.60
2023-02-06T12:53:14.778Z,11.32
2023-02-06T12:56:42.041Z,9.45
2023-02-06T12:59:57.554Z,9.07
2023-02-06T13:03:27.317Z,9.20
2023-02-06T13:06:33.897Z,9.10
2023-02-06T13:09:41.797Z,8.90
2023-02-06T13:12:43.395Z,9.90
2023-02-06T13:15:54.906Z,8.10
2023-02-06T13:19:03.254Z,7.88
2023-02-06T13:22:10.933Z,7.30
2023-02-06T13:25:30.646Z,8.27
2023-02-06T13:28:38.121Z,8.50
2023-02-06T13:31:39.737Z,8.52
2023-02-06T13:34:47.048Z,8.68
2023-02-06T13:37:50.542Z,7.40
2023-02-06T13:41:34.515Z,8.32
2023-02-06T13:44:38.331Z,8.55
2023-02-06T13:48:00.810Z,8.65
2023-02-06T13:51:52.031Z,9.10
2023-02-06T13:55:13.149Z,9.07
2023-02-06T13:58:33.250Z,9.00
2023-02-06T14:01:36.146Z,8.65
2023-02-06T14:04:39.577Z,9.32
2023-02-06T14:07:57.330Z,9.23
2023-02-06T14:11:19.126Z,9.85
2023-02-06T14:14:52.950Z,9.05
2023-02-06T14:18:17.664Z,8.90
2023-02-06T14:25:04.137Z,9.32
2023-02-06T14:28:11.475Z,9.40
2023-02-06T14:31:46.777Z,9.52
2023-02-06T14:35:05.293Z,8.85
2023-02-06T14:38:09.659Z,8.68
2023-02-06T14:41:11.364Z,9.88
2023-02-06T14:44:21.871Z,9.45
2023-02-06T14:47:29.078Z,10.15
2023-02-06T14:50:34.704Z,8.30
2023-02-06T14:53:38.724Z,9.35
2023-02-06T14:56:40.263Z,9.38
2023-02-06T14:59:58.027Z,10.10
2023-02-06T15:03:05.776Z,10.77
2023-02-06T15:06:10.554Z,10.40
2023-02-06T15:09:33.467Z,9.23
2023-02-06T15:12:37.408Z,9.02
2023-02-06T15:15:53.245Z,8.57
2023-02-06T15:19:18.612Z,9.65
2023-02-06T15:22:33.470Z,8.90
2023-02-06T15:25:58.811Z,7.70
2023-02-06T15:29:02.256Z,6.97
2023-02-06T15:32:20.132Z,7.90
2023-02-06T15:35:24.618Z,6.80
2023-02-06T15:38:28.186Z,7.78
2023-02-06T15:41:31.220Z,5.97
2023-02-06T15:44:35.852Z,8.73
2023-02-06T15:47:41.206Z,7.40
2023-02-06T15:50:55.483Z,7.60
2023-02-06T15:54:08.383Z,6.13
2023-02-06T15:57:24.826Z,6.30
2023-02-06T16:00:31.727Z,6.57
2023-02-06T16:03:33.366Z,7.20
2023-02-06T16:06:35.905Z,6.70
2023-02-06T16:10:08.000Z,7.25
2023-02-06T16:13:14.665Z,7.40
2023-02-06T16:16:16.491Z,7.45
2023-02-06T16:19:37.164Z,6.63
2023-02-06T16:22:39.965Z,18.80
2023-02-06T16:25:41.523Z,9.10
2023-02-06T16:28:53.801Z,11.40
2023-02-06T16:32:17.459Z,14.55
2023-02-06T16:35:19.229Z,17.20
2023-02-06T16:38:20.689Z,6.88
2023-02-06T16:41:37.538Z,7.47
2023-02-06T16:44:44.592Z,12.85
2023-02-06T16:47:47.373Z,12.38
2023-02-06T16:50:49.097Z,12.25
2023-02-06T16:53:51.812Z,10.65
2023-02-06T16:56:55.106Z,8.85
2023-02-06T16:59:57.406Z,8.30
2023-02-06T17:02:59.454Z,7.50
2023-02-06T17:06:00.932Z,7.25
2023-02-06T17:09:08.904Z,12.30
2023-02-06T17:12:15.821Z,12.00
2023-02-06T17:15:18.656Z,9.77
2023-02-06T17:18:21.935Z,8.10
2023-02-06T17:21:24.762Z,8.87
2023-02-06T17:24:26.283Z,10.38
2023-02-06T17:27:27.963Z,8.63
2023-02-06T17:30:29.470Z,9.68
2023-02-06T17:33:30.972Z,10.20
2023-02-06T17:36:33.697Z,8.85
2023-02-06T17:39:35.484Z,8.35
2023-02-06T17:42:37.056Z,7.28
2023-02-06T17:45:39.682Z,7.55
2023-02-06T17:48:43.186Z,7.07
2023-02-06T17:51:45.279Z,6.78
2023-02-06T17:54:46.830Z,6.57
2023-02-06T17:57:48.817Z,8.20
2023-02-06T18:00:50.393Z,6.75
2023-02-06T18:03:52.290Z,6.78
2023-02-06T18:06:54.251Z,6.60
2023-02-06T18:09:56.029Z,6.32
2023-02-06T18:12:57.484Z,7.22
2023-02-06T18:15:59.085Z,7.60
2023-02-06T18:19:01.127Z,6.00
2023-02-06T18:22:02.857Z,5.97
2023-02-06T18:25:05.116Z,6.68
2023-02-06T18:28:07.047Z,11.18
2023-02-06T18:31:29.785Z,6.72
2023-02-06T18:34:33.038Z,6.00
2023-02-06T18:37:35.019Z,6.60
2023-02-06T18:40:41.296Z,8.43
2023-02-06T18:43:42.869Z,7.43
2023-02-06T18:46:44.498Z,5.30
2023-02-06T18:49:46.174Z,6.20
2023-02-06T18:52:48.695Z,5.53
2023-02-06T18:56:08.132Z,5.32
2023-02-06T18:59:09.617Z,5.50
2023-02-06T19:02:11.850Z,5.78
2023-02-06T19:05:13.947Z,5.25
2023-02-06T19:08:15.481Z,4.75
2023-02-06T19:11:17.324Z,5.03
2023-02-06T19:14:22.647Z,4.57
2023-02-06T19:17:27.914Z,4.32
2023-02-06T19:20:29.686Z,4.60
2023-02-06T19:23:31.692Z,5.03
2023-02-06T19:26:34.053Z,4.25
2023-02-06T19:29:36.685Z,4.75
2023-02-06T19:32:38.322Z,3.85
2023-02-06T19:35:41.054Z,5.20
2023-02-06T19:38:43.917Z,5.50
2023-02-06T19:41:45.673Z,5.63
2023-02-06T19:44:51.501Z,5.63
2023-02-06T19:47:53.616Z,4.50
2023-02-06T19:50:55.174Z,4.88
2023-02-06T19:53:58.535Z,6.78
2023-02-06T19:57:00.619Z,8.93
2023-02-06T20:00:02.207Z,7.72
2023-02-06T20:03:06.831Z,7.78
2023-02-06T20:06:10.678Z,8.50
2023-02-06T20:09:13.986Z,9.75
2023-02-06T20:12:15.509Z,9.07
2023-02-06T20:15:17.019Z,6.72
2023-02-06T20:18:18.500Z,6.50
2023-02-06T20:21:32.561Z,4.93
2023-02-06T20:24:34.649Z,5.68
2023-02-06T20:27:36.515Z,10.68
2023-02-06T20:30:38.323Z,5.82
2023-02-06T20:33:41.696Z,6.03
2023-02-06T20:36:44.357Z,7.35
2023-02-06T20:39:46.189Z,7.55
2023-02-06T20:42:47.653Z,7.00
2023-02-06T20:45:49.097Z,5.13
2023-02-06T20:48:56.240Z,5.75
2023-02-06T20:51:58.045Z,6.43
2023-02-06T20:54:59.679Z,6.28
2023-02-06T20:58:01.181Z,6.20
2023-02-06T21:01:10.957Z,8.60
2023-02-06T21:04:16.075Z,8.02
2023-02-06T21:07:20.555Z,7.32
2023-02-06T21:10:22.254Z,7.25
2023-02-06T21:13:23.716Z,8.32
2023-02-06T21:16:26.898Z,6.32
2023-02-06T21:19:29.174Z,6.82
2023-02-06T21:22:30.681Z,6.68
2023-02-06T21:25:32.168Z,5.88
2023-02-06T21:28:35.503Z,5.95
2023-02-06T21:31:38.584Z,5.97
2023-02-06T21:34:40.663Z,7.33
2023-02-06T21:37:42.119Z,5.90
2023-02-06T21:40:44.902Z,5.88
2023-02-06T21:43:46.567Z,6.35
2023-02-06T21:46:48.086Z,5.20
2023-02-06T21:49:49.632Z,4.75
2023-02-06T21:52:51.213Z,6.68
2023-02-06T21:55:52.652Z,6.30
2023-02-06T21:58:54.249Z,6.47
2023-02-06T22:01:55.704Z,5.68
2023-02-06T22:04:59.577Z,6.38
2023-02-06T22:08:01.139Z,6.05
2023-02-06T22:11:10.772Z,6.05
2023-02-06T22:14:14.628Z,5.25
2023-02-06T22:17:16.111Z,4.85
2023-02-06T22:20:17.589Z,4.70
2023-02-06T22:23:19.025Z,5.30
2023-02-06T22:26:21.071Z,5.07
2023-02-06T22:29:22.620Z,5.05
2023-02-06T22:32:24.121Z,5.18
2023-02-06T22:35:25.666Z,5.28
2023-02-06T22:38:27.171Z,5.15
2023-02-06T22:41:29.262Z,5.45
2023-02-06T22:44:30.712Z,5.55
2023-02-06T22:47:32.824Z,5.32
2023-02-06T22:50:35.697Z,5.20
2023-02-06T22:53:38.560Z,5.72
2023-02-06T22:56:42.255Z,5.55
2023-02-06T22:59:43.736Z,4.78
2023-02-06T23:02:45.179Z,5.32
2023-02-06T23:05:46.620Z,4.57
2023-02-06T23:08:48.154Z,5.03
2023-02-06T23:11:50.001Z,5.18
2023-02-06T23:14:51.590Z,5.50
2023-02-06T23:17:53.068Z,5.65
2023-02-06T23:21:13.962Z,5.60
2023-02-06T23:24:15.999Z,6.07
2023-02-06T23:27:19.583Z,5.88
2023-02-06T23:30:21.259Z,5.40
2023-02-06T23:33:23.037Z,5.50
2023-02-06T23:36:26.529Z,5.57
2023-02-06T23:39:28.118Z,5.85
2023-02-06T23:42:29.652Z,5.82
2023-02-06T23:45:31.290Z,5.82
2023-02-06T23:48:33.853Z,6.03
2023-02-06T23:51:37.726Z,5.65
2023-02-06T23:54:39.398Z,5.00
2023-02-06T23:57:41.124Z,5.80
